sensor_id;sensor_type;location;lat;lon;timestamp;temperature;humidity
51579;DHT22;47998;53.242;6.386;2024-03-07T00:00:09;3.00;99.90
51579;DHT22;47998;53.242;6.386;2024-03-07T00:02:50;3.00;99.90
51579;DHT22;47998;53.242;6.386;2024-03-07T00:05:17;3.00;99.90
51579;DHT22;47998;53.242;6.386;2024-03-07T00:07:43;2.90;99.90
51579;DHT22;47998;53.242;6.386;2024-03-07T00:10:09;3.00;99.90
51579;DHT22;47998;53.242;6.386;2024-03-07T00:12:35;3.00;99.90
51579;DHT22;47998;53.242;6.386;2024-03-07T00:15:06;3.00;99.90
51579;DHT22;47998;53.242;6.386;2024-03-07T00:17:32;3.10;99.90
51579;DHT22;47998;53.242;6.386;2024-03-07T00:19:58;3.10;99.90
51579;DHT22;47998;53.242;6.386;2024-03-07T00:22:24;3.30;99.90
51579;DHT22;47998;53.242;6.386;2024-03-07T00:24:53;3.30;99.90
51579;DHT22;47998;53.242;6.386;2024-03-07T00:27:19;3.30;99.90
51579;DHT22;47998;53.242;6.386;2024-03-07T00:29:46;3.20;99.90
51579;DHT22;47998;53.242;6.386;2024-03-07T00:32:21;3.20;99.90
51579;DHT22;47998;53.242;6.386;2024-03-07T00:34:48;3.10;99.90
51579;DHT22;47998;53.242;6.386;2024-03-07T00:37:14;3.10;99.90
51579;DHT22;47998;53.242;6.386;2024-03-07T00:39:40;3.10;99.90
51579;DHT22;47998;53.242;6.386;2024-03-07T00:42:07;3.00;99.90
51579;DHT22;47998;53.242;6.386;2024-03-07T00:44:33;3.00;99.90
51579;DHT22;47998;53.242;6.386;2024-03-07T00:47:00;2.90;99.90
51579;DHT22;47998;53.242;6.386;2024-03-07T00:49:27;2.90;99.90
51579;DHT22;47998;53.242;6.386;2024-03-07T00:51:54;2.90;99.90
51579;DHT22;47998;53.242;6.386;2024-03-07T00:54:20;2.90;99.90
51579;DHT22;47998;53.242;6.386;2024-03-07T00:56:45;2.90;99.90
51579;DHT22;47998;53.242;6.386;2024-03-07T00:59:17;2.90;99.90
51579;DHT22;47998;53.242;6.386;2024-03-07T01:01:43;2.90;99.90
51579;DHT22;47998;53.242;6.386;2024-03-07T01:04:09;2.90;99.90
51579;DHT22;47998;53.242;6.386;2024-03-07T01:06:35;2.90;99.90
51579;DHT22;47998;53.242;6.386;2024-03-07T01:09:02;2.90;99.90
51579;DHT22;47998;53.242;6.386;2024-03-07T01:11:28;2.90;99.90
51579;DHT22;47998;53.242;6.386;2024-03-07T01:13:55;2.90;99.90
51579;DHT22;47998;53.242;6.386;2024-03-07T01:16:21;2.80;99.90
51579;DHT22;47998;53.242;6.386;2024-03-07T01:18:47;2.80;99.90
51579;DHT22;47998;53.242;6.386;2024-03-07T01:21:14;2.70;99.90
51579;DHT22;47998;53.242;6.386;2024-03-07T01:23:40;2.60;99.90
51579;DHT22;47998;53.242;6.386;2024-03-07T01:26:06;2.70;99.90
51579;DHT22;47998;53.242;6.386;2024-03-07T01:28:33;2.60;99.90
51579;DHT22;47998;53.242;6.386;2024-03-07T01:30:58;2.70;99.90
51579;DHT22;47998;53.242;6.386;2024-03-07T01:33:24;2.70;99.90
51579;DHT22;47998;53.242;6.386;2024-03-07T01:35:50;2.70;99.90
51579;DHT22;47998;53.242;6.386;2024-03-07T01:38:16;2.70;99.90
51579;DHT22;47998;53.242;6.386;2024-03-07T01:40:43;2.70;99.90
51579;DHT22;47998;53.242;6.386;2024-03-07T01:43:10;2.60;99.90
51579;DHT22;47998;53.242;6.386;2024-03-07T01:45:36;2.50;99.90
51579;DHT22;47998;53.242;6.386;2024-03-07T01:48:06;2.40;99.90
51579;DHT22;47998;53.242;6.386;2024-03-07T01:50:33;2.40;99.90
51579;DHT22;47998;53.242;6.386;2024-03-07T01:53:00;2.30;99.90
51579;DHT22;47998;53.242;6.386;2024-03-07T01:55:27;2.20;99.90
51579;DHT22;47998;53.242;6.386;2024-03-07T01:57:56;2.00;99.90
51579;DHT22;47998;53.242;6.386;2024-03-07T02:00:24;2.00;99.90
51579;DHT22;47998;53.242;6.386;2024-03-07T02:02:51;1.90;99.90
51579;DHT22;47998;53.242;6.386;2024-03-07T02:05:17;1.90;99.90
51579;DHT22;47998;53.242;6.386;2024-03-07T02:07:43;1.80;99.90
51579;DHT22;47998;53.242;6.386;2024-03-07T02:10:09;1.70;99.90
51579;DHT22;47998;53.242;6.386;2024-03-07T02:12:35;1.70;99.90
51579;DHT22;47998;53.242;6.386;2024-03-07T02:15:01;1.60;99.90
51579;DHT22;47998;53.242;6.386;2024-03-07T02:17:28;1.50;99.90
51579;DHT22;47998;53.242;6.386;2024-03-07T02:19:54;1.50;99.90
51579;DHT22;47998;53.242;6.386;2024-03-07T02:22:20;1.40;99.90
51579;DHT22;47998;53.242;6.386;2024-03-07T02:24:46;1.40;99.90
51579;DHT22;47998;53.242;6.386;2024-03-07T02:27:13;1.30;99.90
51579;DHT22;47998;53.242;6.386;2024-03-07T02:29:40;1.30;99.90
51579;DHT22;47998;53.242;6.386;2024-03-07T02:32:06;1.30;99.90
51579;DHT22;47998;53.242;6.386;2024-03-07T02:34:32;1.20;99.90
51579;DHT22;47998;53.242;6.386;2024-03-07T02:36:58;1.20;99.90
51579;DHT22;47998;53.242;6.386;2024-03-07T02:39:24;1.30;99.90
51579;DHT22;47998;53.242;6.386;2024-03-07T02:41:52;1.20;99.90
51579;DHT22;47998;53.242;6.386;2024-03-07T02:44:18;1.30;99.90
51579;DHT22;47998;53.242;6.386;2024-03-07T02:46:45;1.20;99.90
51579;DHT22;47998;53.242;6.386;2024-03-07T02:49:10;1.30;99.90
51579;DHT22;47998;53.242;6.386;2024-03-07T02:51:36;1.20;99.90
51579;DHT22;47998;53.242;6.386;2024-03-07T02:54:02;1.20;99.90
51579;DHT22;47998;53.242;6.386;2024-03-07T02:56:31;1.20;99.90
51579;DHT22;47998;53.242;6.386;2024-03-07T02:58:57;1.10;99.90
51579;DHT22;47998;53.242;6.386;2024-03-07T03:01:22;1.10;99.90
51579;DHT22;47998;53.242;6.386;2024-03-07T03:03:48;1.10;99.90
51579;DHT22;47998;53.242;6.386;2024-03-07T03:06:14;1.10;99.90
51579;DHT22;47998;53.242;6.386;2024-03-07T03:08:40;1.00;99.90
51579;DHT22;47998;53.242;6.386;2024-03-07T03:11:06;1.10;99.90
51579;DHT22;47998;53.242;6.386;2024-03-07T03:13:37;1.10;99.90
51579;DHT22;47998;53.242;6.386;2024-03-07T03:16:04;1.20;99.90
51579;DHT22;47998;53.242;6.386;2024-03-07T03:18:33;1.10;99.90
51579;DHT22;47998;53.242;6.386;2024-03-07T03:21:02;1.10;99.90
51579;DHT22;47998;53.242;6.386;2024-03-07T03:23:31;1.10;99.90
51579;DHT22;47998;53.242;6.386;2024-03-07T03:25:57;1.10;99.90
51579;DHT22;47998;53.242;6.386;2024-03-07T03:28:23;1.10;99.90
51579;DHT22;47998;53.242;6.386;2024-03-07T03:30:49;1.00;99.90
51579;DHT22;47998;53.242;6.386;2024-03-07T03:33:16;1.10;99.90
51579;DHT22;47998;53.242;6.386;2024-03-07T03:35:41;1.00;99.90
51579;DHT22;47998;53.242;6.386;2024-03-07T03:38:08;1.00;99.90
51579;DHT22;47998;53.242;6.386;2024-03-07T03:40:35;1.00;99.90
51579;DHT22;47998;53.242;6.386;2024-03-07T03:43:01;1.00;99.90
51579;DHT22;47998;53.242;6.386;2024-03-07T03:45:27;0.90;99.90
51579;DHT22;47998;53.242;6.386;2024-03-07T03:47:53;0.90;99.90
51579;DHT22;47998;53.242;6.386;2024-03-07T03:50:20;0.80;99.90
51579;DHT22;47998;53.242;6.386;2024-03-07T03:52:48;0.70;99.90
51579;DHT22;47998;53.242;6.386;2024-03-07T03:55:14;0.70;99.90
51579;DHT22;47998;53.242;6.386;2024-03-07T03:57:41;0.60;99.90
51579;DHT22;47998;53.242;6.386;2024-03-07T04:00:08;0.60;99.90
51579;DHT22;47998;53.242;6.386;2024-03-07T04:02:43;0.50;99.90
51579;DHT22;47998;53.242;6.386;2024-03-07T04:05:10;0.50;99.90
51579;DHT22;47998;53.242;6.386;2024-03-07T04:07:37;0.50;99.90
51579;DHT22;47998;53.242;6.386;2024-03-07T04:10:04;0.40;99.90
51579;DHT22;47998;53.242;6.386;2024-03-07T04:12:33;0.40;99.90
51579;DHT22;47998;53.242;6.386;2024-03-07T04:14:59;0.40;99.90
51579;DHT22;47998;53.242;6.386;2024-03-07T04:17:25;0.40;99.90
51579;DHT22;47998;53.242;6.386;2024-03-07T04:19:51;0.40;99.90
51579;DHT22;47998;53.242;6.386;2024-03-07T04:22:17;0.40;99.90
51579;DHT22;47998;53.242;6.386;2024-03-07T04:24:45;0.50;99.90
51579;DHT22;47998;53.242;6.386;2024-03-07T04:27:11;0.50;99.90
51579;DHT22;47998;53.242;6.386;2024-03-07T04:29:37;0.50;99.90
51579;DHT22;47998;53.242;6.386;2024-03-07T04:32:03;0.40;99.90
51579;DHT22;47998;53.242;6.386;2024-03-07T04:34:30;0.40;99.90
51579;DHT22;47998;53.242;6.386;2024-03-07T04:37:01;0.40;99.90
51579;DHT22;47998;53.242;6.386;2024-03-07T04:39:27;0.40;99.90
51579;DHT22;47998;53.242;6.386;2024-03-07T04:42:02;0.40;99.90
51579;DHT22;47998;53.242;6.386;2024-03-07T04:44:32;0.30;99.90
51579;DHT22;47998;53.242;6.386;2024-03-07T04:46:59;0.30;99.90
51579;DHT22;47998;53.242;6.386;2024-03-07T04:49:27;0.20;99.90
51579;DHT22;47998;53.242;6.386;2024-03-07T04:51:56;0.10;99.90
51579;DHT22;47998;53.242;6.386;2024-03-07T04:54:24;0.30;99.90
51579;DHT22;47998;53.242;6.386;2024-03-07T04:56:52;0.20;99.90
51579;DHT22;47998;53.242;6.386;2024-03-07T04:59:19;0.20;99.90
51579;DHT22;47998;53.242;6.386;2024-03-07T05:01:46;0.20;99.90
51579;DHT22;47998;53.242;6.386;2024-03-07T05:04:13;0.20;99.90
51579;DHT22;47998;53.242;6.386;2024-03-07T05:06:39;0.10;99.90
51579;DHT22;47998;53.242;6.386;2024-03-07T05:09:07;0.10;99.90
51579;DHT22;47998;53.242;6.386;2024-03-07T05:11:34;0.10;99.90
51579;DHT22;47998;53.242;6.386;2024-03-07T05:14:01;0.20;99.90
51579;DHT22;47998;53.242;6.386;2024-03-07T05:16:28;0.10;99.90
51579;DHT22;47998;53.242;6.386;2024-03-07T05:18:55;0.00;99.90
51579;DHT22;47998;53.242;6.386;2024-03-07T05:21:27;0.10;99.90
51579;DHT22;47998;53.242;6.386;2024-03-07T05:24:03;0.00;99.90
51579;DHT22;47998;53.242;6.386;2024-03-07T05:26:30;0.10;99.90
51579;DHT22;47998;53.242;6.386;2024-03-07T05:29:09;0.10;99.90
51579;DHT22;47998;53.242;6.386;2024-03-07T05:31:39;0.10;99.90
51579;DHT22;47998;53.242;6.386;2024-03-07T05:34:12;0.00;99.90
51579;DHT22;47998;53.242;6.386;2024-03-07T05:36:38;0.10;99.90
51579;DHT22;47998;53.242;6.386;2024-03-07T05:39:15;0.10;99.90
51579;DHT22;47998;53.242;6.386;2024-03-07T05:41:42;0.10;99.90
51579;DHT22;47998;53.242;6.386;2024-03-07T05:44:10;0.20;99.90
51579;DHT22;47998;53.242;6.386;2024-03-07T05:46:42;0.20;99.90
51579;DHT22;47998;53.242;6.386;2024-03-07T05:49:15;0.30;99.90
51579;DHT22;47998;53.242;6.386;2024-03-07T05:51:42;0.30;99.90
51579;DHT22;47998;53.242;6.386;2024-03-07T05:54:11;0.20;99.90
51579;DHT22;47998;53.242;6.386;2024-03-07T05:56:39;0.20;99.90
51579;DHT22;47998;53.242;6.386;2024-03-07T05:59:05;0.20;99.90
51579;DHT22;47998;53.242;6.386;2024-03-07T06:01:33;0.10;99.90
51579;DHT22;47998;53.242;6.386;2024-03-07T06:04:04;0.00;99.90
51579;DHT22;47998;53.242;6.386;2024-03-07T06:06:36;0.10;99.90
51579;DHT22;47998;53.242;6.386;2024-03-07T06:09:03;0.10;99.90
51579;DHT22;47998;53.242;6.386;2024-03-07T06:11:36;0.10;99.90
51579;DHT22;47998;53.242;6.386;2024-03-07T06:14:03;0.10;99.90
51579;DHT22;47998;53.242;6.386;2024-03-07T06:16:33;0.10;99.90
51579;DHT22;47998;53.242;6.386;2024-03-07T06:19:01;0.10;99.90
51579;DHT22;47998;53.242;6.386;2024-03-07T06:21:29;0.10;99.90
51579;DHT22;47998;53.242;6.386;2024-03-07T06:23:56;0.10;99.90
51579;DHT22;47998;53.242;6.386;2024-03-07T06:26:30;0.10;99.90
51579;DHT22;47998;53.242;6.386;2024-03-07T06:29:17;0.10;99.90
51579;DHT22;47998;53.242;6.386;2024-03-07T06:31:43;0.20;99.90
51579;DHT22;47998;53.242;6.386;2024-03-07T06:34:12;0.10;99.90
51579;DHT22;47998;53.242;6.386;2024-03-07T06:36:38;0.10;99.90
51579;DHT22;47998;53.242;6.386;2024-03-07T06:39:04;0.10;99.90
51579;DHT22;47998;53.242;6.386;2024-03-07T06:41:34;0.20;99.90
51579;DHT22;47998;53.242;6.386;2024-03-07T06:44:00;0.30;99.90
51579;DHT22;47998;53.242;6.386;2024-03-07T06:46:26;0.40;99.90
51579;DHT22;47998;53.242;6.386;2024-03-07T06:48:52;0.50;99.90
51579;DHT22;47998;53.242;6.386;2024-03-07T06:51:18;0.60;99.90
51579;DHT22;47998;53.242;6.386;2024-03-07T06:53:44;0.60;99.90
51579;DHT22;47998;53.242;6.386;2024-03-07T06:56:13;0.80;99.90
51579;DHT22;47998;53.242;6.386;2024-03-07T06:58:40;0.70;99.90
51579;DHT22;47998;53.242;6.386;2024-03-07T07:01:06;0.80;99.90
51579;DHT22;47998;53.242;6.386;2024-03-07T07:03:39;0.80;99.90
51579;DHT22;47998;53.242;6.386;2024-03-07T07:06:05;0.90;99.90
51579;DHT22;47998;53.242;6.386;2024-03-07T07:08:33;0.80;99.90
51579;DHT22;47998;53.242;6.386;2024-03-07T07:10:59;0.90;99.90
51579;DHT22;47998;53.242;6.386;2024-03-07T07:13:25;0.90;99.90
51579;DHT22;47998;53.242;6.386;2024-03-07T07:15:51;0.90;99.90
51579;DHT22;47998;53.242;6.386;2024-03-07T07:18:17;1.00;99.90
51579;DHT22;47998;53.242;6.386;2024-03-07T07:20:43;1.00;99.90
51579;DHT22;47998;53.242;6.386;2024-03-07T07:23:08;1.00;99.90
51579;DHT22;47998;53.242;6.386;2024-03-07T07:25:34;1.10;99.90
51579;DHT22;47998;53.242;6.386;2024-03-07T07:28:00;1.10;99.90
51579;DHT22;47998;53.242;6.386;2024-03-07T07:30:26;1.20;99.90
51579;DHT22;47998;53.242;6.386;2024-03-07T07:32:53;1.20;99.90
51579;DHT22;47998;53.242;6.386;2024-03-07T07:35:19;1.20;99.90
51579;DHT22;47998;53.242;6.386;2024-03-07T07:37:47;1.20;99.90
51579;DHT22;47998;53.242;6.386;2024-03-07T07:40:16;1.10;99.90
51579;DHT22;47998;53.242;6.386;2024-03-07T07:42:45;1.10;99.90
51579;DHT22;47998;53.242;6.386;2024-03-07T07:45:13;1.10;99.90
51579;DHT22;47998;53.242;6.386;2024-03-07T07:47:40;1.20;99.90
51579;DHT22;47998;53.242;6.386;2024-03-07T07:50:11;1.20;99.90
51579;DHT22;47998;53.242;6.386;2024-03-07T07:53:03;1.20;99.90
51579;DHT22;47998;53.242;6.386;2024-03-07T07:55:32;1.20;99.90
51579;DHT22;47998;53.242;6.386;2024-03-07T07:57:59;1.30;99.90
51579;DHT22;47998;53.242;6.386;2024-03-07T08:00:26;1.30;99.90
51579;DHT22;47998;53.242;6.386;2024-03-07T08:05:24;1.20;99.90
51579;DHT22;47998;53.242;6.386;2024-03-07T08:07:51;1.20;99.90
51579;DHT22;47998;53.242;6.386;2024-03-07T08:10:18;1.10;99.90
51579;DHT22;47998;53.242;6.386;2024-03-07T08:12:47;1.10;99.90
51579;DHT22;47998;53.242;6.386;2024-03-07T08:15:13;1.20;99.90
51579;DHT22;47998;53.242;6.386;2024-03-07T08:17:41;1.20;99.90
51579;DHT22;47998;53.242;6.386;2024-03-07T08:20:15;1.20;99.90
51579;DHT22;47998;53.242;6.386;2024-03-07T08:22:42;1.20;99.90
51579;DHT22;47998;53.242;6.386;2024-03-07T08:25:14;1.20;99.90
51579;DHT22;47998;53.242;6.386;2024-03-07T08:27:42;1.20;99.90
51579;DHT22;47998;53.242;6.386;2024-03-07T08:30:10;1.10;99.90
51579;DHT22;47998;53.242;6.386;2024-03-07T08:32:39;1.10;99.90
51579;DHT22;47998;53.242;6.386;2024-03-07T08:35:06;1.20;99.90
51579;DHT22;47998;53.242;6.386;2024-03-07T08:37:38;1.30;99.90
51579;DHT22;47998;53.242;6.386;2024-03-07T08:40:05;1.50;99.90
51579;DHT22;47998;53.242;6.386;2024-03-07T08:42:39;1.60;99.90
51579;DHT22;47998;53.242;6.386;2024-03-07T08:45:07;1.70;99.90
51579;DHT22;47998;53.242;6.386;2024-03-07T08:47:37;1.80;99.90
51579;DHT22;47998;53.242;6.386;2024-03-07T08:50:04;1.80;99.90
51579;DHT22;47998;53.242;6.386;2024-03-07T08:52:37;1.90;99.90
51579;DHT22;47998;53.242;6.386;2024-03-07T08:55:03;1.90;99.90
51579;DHT22;47998;53.242;6.386;2024-03-07T08:57:30;2.00;99.90
51579;DHT22;47998;53.242;6.386;2024-03-07T08:59:56;2.00;99.90
51579;DHT22;47998;53.242;6.386;2024-03-07T09:02:22;1.90;99.90
51579;DHT22;47998;53.242;6.386;2024-03-07T09:04:48;1.90;99.90
51579;DHT22;47998;53.242;6.386;2024-03-07T09:07:13;1.90;99.90
51579;DHT22;47998;53.242;6.386;2024-03-07T09:09:40;1.90;99.90
51579;DHT22;47998;53.242;6.386;2024-03-07T09:12:09;2.00;99.90
51579;DHT22;47998;53.242;6.386;2024-03-07T09:14:35;2.00;99.90
51579;DHT22;47998;53.242;6.386;2024-03-07T09:17:01;2.00;99.90
51579;DHT22;47998;53.242;6.386;2024-03-07T09:19:27;2.00;99.90
51579;DHT22;47998;53.242;6.386;2024-03-07T09:21:54;2.10;99.90
51579;DHT22;47998;53.242;6.386;2024-03-07T09:24:20;2.20;99.90
51579;DHT22;47998;53.242;6.386;2024-03-07T09:26:50;2.30;99.90
51579;DHT22;47998;53.242;6.386;2024-03-07T09:29:19;2.30;99.90
51579;DHT22;47998;53.242;6.386;2024-03-07T09:31:46;2.30;99.90
51579;DHT22;47998;53.242;6.386;2024-03-07T09:34:13;2.50;99.90
51579;DHT22;47998;53.242;6.386;2024-03-07T09:36:40;2.50;99.90
51579;DHT22;47998;53.242;6.386;2024-03-07T09:39:09;2.50;99.90
51579;DHT22;47998;53.242;6.386;2024-03-07T09:41:35;2.60;99.90
51579;DHT22;47998;53.242;6.386;2024-03-07T09:44:01;2.60;99.90
51579;DHT22;47998;53.242;6.386;2024-03-07T09:46:28;2.60;99.90
51579;DHT22;47998;53.242;6.386;2024-03-07T09:48:57;2.60;99.90
51579;DHT22;47998;53.242;6.386;2024-03-07T09:51:24;2.70;99.90
51579;DHT22;47998;53.242;6.386;2024-03-07T09:53:53;2.70;99.90
51579;DHT22;47998;53.242;6.386;2024-03-07T09:56:21;2.80;99.90
51579;DHT22;47998;53.242;6.386;2024-03-07T09:58:49;2.80;99.90
51579;DHT22;47998;53.242;6.386;2024-03-07T10:01:22;2.80;99.90
51579;DHT22;47998;53.242;6.386;2024-03-07T10:03:56;2.80;99.90
51579;DHT22;47998;53.242;6.386;2024-03-07T10:06:23;2.80;99.90
51579;DHT22;47998;53.242;6.386;2024-03-07T10:08:49;2.90;99.90
51579;DHT22;47998;53.242;6.386;2024-03-07T10:11:15;3.00;99.90
51579;DHT22;47998;53.242;6.386;2024-03-07T10:13:41;2.90;99.90
51579;DHT22;47998;53.242;6.386;2024-03-07T10:16:07;3.00;99.90
51579;DHT22;47998;53.242;6.386;2024-03-07T10:18:41;2.90;99.90
51579;DHT22;47998;53.242;6.386;2024-03-07T10:21:08;3.00;99.90
51579;DHT22;47998;53.242;6.386;2024-03-07T10:23:34;2.90;99.90
51579;DHT22;47998;53.242;6.386;2024-03-07T10:26:00;2.90;99.90
51579;DHT22;47998;53.242;6.386;2024-03-07T10:28:29;3.00;99.90
51579;DHT22;47998;53.242;6.386;2024-03-07T10:30:56;3.00;99.90
51579;DHT22;47998;53.242;6.386;2024-03-07T10:33:27;3.10;99.90
51579;DHT22;47998;53.242;6.386;2024-03-07T10:35:53;3.20;99.90
51579;DHT22;47998;53.242;6.386;2024-03-07T10:38:19;3.30;99.90
51579;DHT22;47998;53.242;6.386;2024-03-07T10:40:48;3.40;99.90
51579;DHT22;47998;53.242;6.386;2024-03-07T10:43:20;3.30;99.90
51579;DHT22;47998;53.242;6.386;2024-03-07T10:45:48;3.40;99.90
51579;DHT22;47998;53.242;6.386;2024-03-07T10:48:17;3.40;99.90
51579;DHT22;47998;53.242;6.386;2024-03-07T10:51:06;3.50;99.90
51579;DHT22;47998;53.242;6.386;2024-03-07T11:01:26;3.90;99.90
51579;DHT22;47998;53.242;6.386;2024-03-07T11:03:56;4.00;99.90
51579;DHT22;47998;53.242;6.386;2024-03-07T11:06:24;4.20;99.90
51579;DHT22;47998;53.242;6.386;2024-03-07T11:08:50;4.20;99.90
51579;DHT22;47998;53.242;6.386;2024-03-07T11:11:17;4.20;99.90
51579;DHT22;47998;53.242;6.386;2024-03-07T11:13:44;4.30;99.90
51579;DHT22;47998;53.242;6.386;2024-03-07T11:16:11;4.30;99.90
51579;DHT22;47998;53.242;6.386;2024-03-07T11:18:40;4.20;99.90
51579;DHT22;47998;53.242;6.386;2024-03-07T11:21:05;4.20;99.90
51579;DHT22;47998;53.242;6.386;2024-03-07T11:23:33;4.30;99.90
51579;DHT22;47998;53.242;6.386;2024-03-07T11:26:10;4.50;99.90
51579;DHT22;47998;53.242;6.386;2024-03-07T11:28:41;4.60;99.90
51579;DHT22;47998;53.242;6.386;2024-03-07T11:31:15;4.70;99.90
51579;DHT22;47998;53.242;6.386;2024-03-07T11:33:41;4.70;99.90
51579;DHT22;47998;53.242;6.386;2024-03-07T11:36:10;4.70;99.90
51579;DHT22;47998;53.242;6.386;2024-03-07T11:38:44;4.80;99.90
51579;DHT22;47998;53.242;6.386;2024-03-07T11:41:10;5.00;99.90
51579;DHT22;47998;53.242;6.386;2024-03-07T11:43:40;5.10;99.90
51579;DHT22;47998;53.242;6.386;2024-03-07T11:46:06;5.10;99.90
51579;DHT22;47998;53.242;6.386;2024-03-07T11:48:39;5.10;99.90
51579;DHT22;47998;53.242;6.386;2024-03-07T11:51:07;5.00;99.90
51579;DHT22;47998;53.242;6.386;2024-03-07T11:53:39;5.00;99.90
51579;DHT22;47998;53.242;6.386;2024-03-07T11:56:05;5.00;99.90
51579;DHT22;47998;53.242;6.386;2024-03-07T11:58:43;5.10;99.90
51579;DHT22;47998;53.242;6.386;2024-03-07T12:01:10;5.20;99.90
51579;DHT22;47998;53.242;6.386;2024-03-07T12:03:38;5.40;99.90
51579;DHT22;47998;53.242;6.386;2024-03-07T12:06:04;5.40;99.90
51579;DHT22;47998;53.242;6.386;2024-03-07T12:08:29;5.50;99.90
51579;DHT22;47998;53.242;6.386;2024-03-07T12:10:55;5.70;99.90
51579;DHT22;47998;53.242;6.386;2024-03-07T12:13:22;5.90;99.90
51579;DHT22;47998;53.242;6.386;2024-03-07T12:15:50;6.00;99.90
51579;DHT22;47998;53.242;6.386;2024-03-07T12:18:22;6.00;99.90
51579;DHT22;47998;53.242;6.386;2024-03-07T12:20:48;6.10;99.90
51579;DHT22;47998;53.242;6.386;2024-03-07T12:23:22;6.10;99.90
51579;DHT22;47998;53.242;6.386;2024-03-07T12:25:47;6.10;99.90
51579;DHT22;47998;53.242;6.386;2024-03-07T12:28:14;5.90;99.90
51579;DHT22;47998;53.242;6.386;2024-03-07T12:33:14;5.70;99.90
51579;DHT22;47998;53.242;6.386;2024-03-07T12:35:49;5.70;99.90
51579;DHT22;47998;53.242;6.386;2024-03-07T12:38:16;5.90;99.90
51579;DHT22;47998;53.242;6.386;2024-03-07T12:40:43;6.00;99.90
51579;DHT22;47998;53.242;6.386;2024-03-07T12:43:19;6.40;99.90
51579;DHT22;47998;53.242;6.386;2024-03-07T12:45:50;7.00;99.90
51579;DHT22;47998;53.242;6.386;2024-03-07T12:48:19;7.50;99.90
51579;DHT22;47998;53.242;6.386;2024-03-07T12:50:47;7.60;99.90
51579;DHT22;47998;53.242;6.386;2024-03-07T12:53:28;7.50;99.90
51579;DHT22;47998;53.242;6.386;2024-03-07T12:55:55;7.40;99.90
51579;DHT22;47998;53.242;6.386;2024-03-07T12:58:21;7.30;99.90
51579;DHT22;47998;53.242;6.386;2024-03-07T13:00:55;7.40;99.90
51579;DHT22;47998;53.242;6.386;2024-03-07T13:03:26;7.50;99.90
51579;DHT22;47998;53.242;6.386;2024-03-07T13:06:01;7.40;99.90
51579;DHT22;47998;53.242;6.386;2024-03-07T13:08:27;7.20;99.90
51579;DHT22;47998;53.242;6.386;2024-03-07T13:10:55;7.00;99.90
51579;DHT22;47998;53.242;6.386;2024-03-07T13:13:21;6.90;99.90
51579;DHT22;47998;53.242;6.386;2024-03-07T13:15:48;6.80;99.90
51579;DHT22;47998;53.242;6.386;2024-03-07T13:18:14;6.50;99.90
51579;DHT22;47998;53.242;6.386;2024-03-07T13:20:40;6.40;99.90
51579;DHT22;47998;53.242;6.386;2024-03-07T13:23:08;6.20;99.90
51579;DHT22;47998;53.242;6.386;2024-03-07T13:25:35;6.40;99.90
51579;DHT22;47998;53.242;6.386;2024-03-07T13:28:14;6.60;99.90
51579;DHT22;47998;53.242;6.386;2024-03-07T13:30:45;6.60;99.90
51579;DHT22;47998;53.242;6.386;2024-03-07T13:33:14;6.60;99.90
51579;DHT22;47998;53.242;6.386;2024-03-07T13:35:40;6.50;99.90
51579;DHT22;47998;53.242;6.386;2024-03-07T13:38:06;6.40;99.90
51579;DHT22;47998;53.242;6.386;2024-03-07T13:40:33;6.40;99.90
51579;DHT22;47998;53.242;6.386;2024-03-07T13:43:04;6.30;99.90
51579;DHT22;47998;53.242;6.386;2024-03-07T13:45:32;6.20;99.90
51579;DHT22;47998;53.242;6.386;2024-03-07T13:48:02;6.10;99.90
51579;DHT22;47998;53.242;6.386;2024-03-07T13:50:31;6.30;99.90
51579;DHT22;47998;53.242;6.386;2024-03-07T13:52:58;6.40;99.90
51579;DHT22;47998;53.242;6.386;2024-03-07T14:04:27;6.30;99.90
51579;DHT22;47998;53.242;6.386;2024-03-07T14:13:22;6.40;99.90
51579;DHT22;47998;53.242;6.386;2024-03-07T14:27:26;6.20;99.90
51579;DHT22;47998;53.242;6.386;2024-03-07T14:33:00;6.30;99.90
51579;DHT22;47998;53.242;6.386;2024-03-07T14:38:30;6.40;99.90
51579;DHT22;47998;53.242;6.386;2024-03-07T14:41:04;6.30;99.90
51579;DHT22;47998;53.242;6.386;2024-03-07T14:43:34;6.20;99.90
51579;DHT22;47998;53.242;6.386;2024-03-07T14:46:00;6.30;99.90
51579;DHT22;47998;53.242;6.386;2024-03-07T14:48:26;6.30;99.90
51579;DHT22;47998;53.242;6.386;2024-03-07T14:50:53;6.30;99.90
51579;DHT22;47998;53.242;6.386;2024-03-07T14:53:19;6.30;99.90
51579;DHT22;47998;53.242;6.386;2024-03-07T14:55:46;6.30;99.90
51579;DHT22;47998;53.242;6.386;2024-03-07T14:58:12;6.20;99.90
51579;DHT22;47998;53.242;6.386;2024-03-07T15:00:40;6.20;99.90
51579;DHT22;47998;53.242;6.386;2024-03-07T15:03:14;6.20;99.90
51579;DHT22;47998;53.242;6.386;2024-03-07T15:05:41;6.20;99.90
51579;DHT22;47998;53.242;6.386;2024-03-07T15:08:07;6.30;99.90
51579;DHT22;47998;53.242;6.386;2024-03-07T15:10:36;6.30;99.90
51579;DHT22;47998;53.242;6.386;2024-03-07T15:13:03;6.30;99.90
51579;DHT22;47998;53.242;6.386;2024-03-07T15:15:29;6.20;99.90
51579;DHT22;47998;53.242;6.386;2024-03-07T15:17:58;6.20;99.90
51579;DHT22;47998;53.242;6.386;2024-03-07T15:20:25;6.10;99.90
51579;DHT22;47998;53.242;6.386;2024-03-07T15:22:59;6.10;99.90
51579;DHT22;47998;53.242;6.386;2024-03-07T15:25:26;6.00;99.90
51579;DHT22;47998;53.242;6.386;2024-03-07T15:27:54;6.00;99.90
51579;DHT22;47998;53.242;6.386;2024-03-07T15:30:25;5.90;99.90
51579;DHT22;47998;53.242;6.386;2024-03-07T15:32:58;5.90;99.90
51579;DHT22;47998;53.242;6.386;2024-03-07T15:35:27;5.90;99.90
51579;DHT22;47998;53.242;6.386;2024-03-07T15:37:53;5.90;99.90
51579;DHT22;47998;53.242;6.386;2024-03-07T15:40:20;5.90;99.90
51579;DHT22;47998;53.242;6.386;2024-03-07T15:42:51;5.90;99.90
51579;DHT22;47998;53.242;6.386;2024-03-07T15:45:21;5.80;99.90
51579;DHT22;47998;53.242;6.386;2024-03-07T15:50:21;5.80;99.90
51579;DHT22;47998;53.242;6.386;2024-03-07T15:52:49;5.70;99.90
51579;DHT22;47998;53.242;6.386;2024-03-07T15:55:18;5.70;99.90
51579;DHT22;47998;53.242;6.386;2024-03-07T15:57:49;5.70;99.90
51579;DHT22;47998;53.242;6.386;2024-03-07T16:00:23;5.70;99.90
51579;DHT22;47998;53.242;6.386;2024-03-07T16:02:59;5.70;99.90
51579;DHT22;47998;53.242;6.386;2024-03-07T16:05:29;5.60;99.90
51579;DHT22;47998;53.242;6.386;2024-03-07T16:08:00;5.60;99.90
51579;DHT22;47998;53.242;6.386;2024-03-07T16:10:30;5.60;99.90
51579;DHT22;47998;53.242;6.386;2024-03-07T16:13:00;5.70;99.90
51579;DHT22;47998;53.242;6.386;2024-03-07T16:15:27;5.70;99.90
51579;DHT22;47998;53.242;6.386;2024-03-07T16:17:54;5.70;99.90
51579;DHT22;47998;53.242;6.386;2024-03-07T16:20:31;5.70;99.90
51579;DHT22;47998;53.242;6.386;2024-03-07T16:22:57;5.70;99.90
51579;DHT22;47998;53.242;6.386;2024-03-07T16:25:24;5.70;99.90
51579;DHT22;47998;53.242;6.386;2024-03-07T16:27:51;5.80;99.90
51579;DHT22;47998;53.242;6.386;2024-03-07T16:30:23;5.70;99.90
51579;DHT22;47998;53.242;6.386;2024-03-07T16:32:50;5.80;99.90
51579;DHT22;47998;53.242;6.386;2024-03-07T16:35:23;5.80;99.90
51579;DHT22;47998;53.242;6.386;2024-03-07T16:37:49;5.70;99.90